Time;durP1;ratioP1;P1;durP2;ratioP2;P2;SDS_P1;SDS_P2;PMS_P1;PMS_P2;Temp;Humidity;BMP_temperature;BMP_pressure;BME280_temperature;BME280_humidity;BME280_pressure;Samples;Min_cycle;Max_cycle;Signal;HPM_P1;HPM_P2
2021/03/27 00:00:54;;;;;;;;;;;;;;;13.49;42.31;100946.25;4840588;29;19936;-75
2021/03/27 00:03:24;;;;;;;;;;;;;;;13.47;42.39;100938.34;4843035;29;19975;-74
2021/03/27 00:05:57;;;;;;;;;;;;;;;13.43;42.59;100940.28;4847575;29;19933;-74
2021/03/27 00:08:27;;;;;;;;;;;;;;;13.40;42.74;100935.06;4859775;29;19942;-74
2021/03/27 00:10:56;;;;;;;;;;;;;;;13.39;42.72;100932.47;4845699;29;19936;-73
2021/03/27 00:13:26;;;;;;;;;;;;;;;13.36;42.67;100924.59;4856211;29;19936;-74
2021/03/27 00:16:11;;;;;;;;;;;;;;;13.34;42.68;100918.44;4836120;29;19985;-74
2021/03/27 00:18:45;;;;;;;;;;;;;;;13.32;42.83;100913.19;4845638;29;19943;-74
2021/03/27 00:21:16;;;;;;;;;;;;;;;13.27;42.89;100900.06;4845990;29;19940;-74
2021/03/27 00:23:50;;;;;;;;;;;;;;;13.24;43.02;100894.00;4855675;29;20421;-75
2021/03/27 00:26:21;;;;;;;;;;;;;;;13.22;42.93;100887.88;4859935;29;20345;-75
2021/03/27 00:28:51;;;;;;;;;;;;;;;13.21;42.99;100886.13;4849964;29;19943;-73
2021/03/27 00:31:22;;;;;;;;;;;;;;;13.18;43.10;100881.78;4840732;29;20403;-73
2021/03/27 00:33:53;;;;;;;;;;;;;;;13.16;43.16;100881.00;4845943;29;19943;-76
2021/03/27 00:36:22;;;;;;;;;;;;;;;13.13;43.10;100883.75;4843644;29;19939;-76
2021/03/27 00:38:53;;;;;;;;;;;;;;;13.11;43.13;100874.97;4844969;29;19962;-76
2021/03/27 00:41:23;;;;;;;;;;;;;;;13.09;43.19;100874.16;4846333;29;19932;-75
2021/03/27 00:43:55;;;;;;;;;;;;;;;13.07;43.05;100874.22;4838997;29;19955;-76
2021/03/27 00:46:23;;;;;;;;;;;;;;;13.05;43.32;100869.88;4845578;29;19939;-76
2021/03/27 00:48:56;;;;;;;;;;;;;;;13.03;43.35;100861.13;4845721;29;19940;-74
2021/03/27 00:51:26;;;;;;;;;;;;;;;13.00;43.25;100862.09;4842970;29;20024;-77
2021/03/27 00:53:55;;;;;;;;;;;;;;;12.98;43.48;100857.75;4857908;29;20001;-77
2021/03/27 00:56:26;;;;;;;;;;;;;;;12.93;43.38;100856.09;4839538;29;19958;-76
2021/03/27 00:58:59;;;;;;;;;;;;;;;12.92;43.38;100843.78;4853841;29;19939;-76
2021/03/27 01:01:34;;;;;;;;;;;;;;;12.92;43.51;100846.44;4856386;29;19939;-76
2021/03/27 01:04:23;;;;;;;;;;;;;;;12.88;43.62;100838.63;4846278;29;19947;-76
2021/03/27 01:07:12;;;;;;;;;;;;;;;12.86;43.57;100833.38;4843155;29;19928;-77
2021/03/27 01:10:01;;;;;;;;;;;;;;;12.84;43.57;100831.69;4846094;29;19966;-76
2021/03/27 01:12:54;;;;;;;;;;;;;;;12.83;43.59;100827.28;4841691;29;20287;-76
2021/03/27 01:15:24;;;;;;;;;;;;;;;12.79;43.52;100822.09;4862364;29;19936;-76
2021/03/27 01:18:09;;;;;;;;;;;;;;;12.77;43.79;100817.78;4842766;29;19939;-76
2021/03/27 01:20:39;;;;;;;;;;;;;;;12.74;43.65;100815.25;4846783;29;19929;-77
2021/03/27 01:23:07;;;;;;;;;;;;;;;12.72;43.66;100814.41;4845439;29;19933;-77
2021/03/27 01:25:35;;;;;;;;;;;;;;;12.70;43.66;100805.63;4839492;29;20013;-76
2021/03/27 01:28:05;;;;;;;;;;;;;;;12.68;44.09;100804.81;4843041;29;19935;-77
2021/03/27 01:30:34;;;;;;;;;;;;;;;12.64;43.67;100806.72;4847497;29;19953;-76
2021/03/27 01:33:04;;;;;;;;;;;;;;;12.61;43.87;100804.19;4845416;29;19944;-76
2021/03/27 01:35:33;;;;;;;;;;;;;;;12.60;43.93;100794.47;4845436;29;19928;-77
2021/03/27 01:38:06;;;;;;;;;;;;;;;12.58;43.90;100788.34;4843250;29;19933;-76
2021/03/27 01:40:39;;;;;;;;;;;;;;;12.56;43.83;100782.25;4841080;29;19932;-77
2021/03/27 01:43:14;;;;;;;;;;;;;;;12.53;43.93;100785.88;4846051;29;19960;-77
2021/03/27 01:45:55;;;;;;;;;;;;;;;12.51;44.04;100782.38;4841530;29;19932;-76
2021/03/27 01:48:39;;;;;;;;;;;;;;;12.48;44.05;100779.84;4830113;29;19943;-76
2021/03/27 01:51:12;;;;;;;;;;;;;;;12.47;44.06;100772.81;4844785;29;20090;-76
2021/03/27 01:53:43;;;;;;;;;;;;;;;12.44;44.09;100773.78;4857569;29;19936;-76
2021/03/27 01:56:21;;;;;;;;;;;;;;;12.42;44.12;100770.34;4838707;29;19932;-76
2021/03/27 01:58:51;;;;;;;;;;;;;;;12.41;44.18;100762.41;4841540;29;19939;-75
2021/03/27 02:01:22;;;;;;;;;;;;;;;12.40;44.32;100768.66;4845317;29;20447;-76
2021/03/27 02:03:51;;;;;;;;;;;;;;;12.37;43.99;100758.13;4838827;29;19929;-77
2021/03/27 02:06:23;;;;;;;;;;;;;;;12.36;44.33;100753.75;4839288;29;20000;-77
2021/03/27 02:08:58;;;;;;;;;;;;;;;12.34;44.16;100752.94;4848959;29;19940;-76
2021/03/27 02:11:30;;;;;;;;;;;;;;;12.30;44.23;100746.88;4844312;29;19957;-76
2021/03/27 02:14:02;;;;;;;;;;;;;;;12.29;44.31;100755.72;4857431;29;19928;-77
2021/03/27 02:16:34;;;;;;;;;;;;;;;12.27;44.35;100741.69;4843360;29;19932;-77
2021/03/27 02:19:06;;;;;;;;;;;;;;;12.23;44.39;100743.56;4845524;29;19936;-76
2021/03/27 02:21:38;;;;;;;;;;;;;;;12.22;44.44;100746.25;4836956;29;19944;-77
2021/03/27 02:24:10;;;;;;;;;;;;;;;12.20;44.46;100738.38;4852312;29;21278;-76
2021/03/27 02:26:48;;;;;;;;;;;;;;;12.18;44.41;100742.00;4841964;29;20536;-76
2021/03/27 02:29:34;;;;;;;;;;;;;;;12.16;44.44;100738.50;4841739;29;19929;-76
2021/03/27 02:32:06;;;;;;;;;;;;;;;12.13;44.49;100726.22;4845144;29;19933;-77
2021/03/27 02:34:37;;;;;;;;;;;;;;;12.14;44.44;100735.06;4853436;29;20412;-77
2021/03/27 02:37:06;;;;;;;;;;;;;;;12.09;44.66;100729.91;4838807;29;20043;-76
2021/03/27 02:39:40;;;;;;;;;;;;;;;12.06;44.70;100727.38;4842849;29;19936;-76
2021/03/27 02:42:11;;;;;;;;;;;;;;;12.05;44.47;100718.53;4847746;29;19996;-76
2021/03/27 02:44:41;;;;;;;;;;;;;;;12.06;44.57;100722.06;4858319;29;19933;-76
2021/03/27 02:47:29;;;;;;;;;;;;;;;12.02;44.66;100707.19;4845111;29;19946;-77
2021/03/27 02:49:57;;;;;;;;;;;;;;;11.98;44.54;100698.47;4842650;29;19937;-77
2021/03/27 02:52:31;;;;;;;;;;;;;;;11.99;44.57;100699.31;4840548;29;20506;-76
2021/03/27 02:55:02;;;;;;;;;;;;;;;11.98;44.52;100697.56;4844503;29;20039;-76
2021/03/27 02:57:33;;;;;;;;;;;;;;;11.99;44.51;100691.34;4857070;29;19974;-76
2021/03/27 03:00:08;;;;;;;;;;;;;;;12.05;44.09;100685.84;4845176;29;19932;-76
2021/03/27 03:02:42;;;;;;;;;;;;;;;12.09;43.46;100680.38;4842417;29;19936;-77
2021/03/27 03:05:13;;;;;;;;;;;;;;;12.14;42.12;100677.56;4840231;29;19947;-77
2021/03/27 03:07:48;;;;;;;;;;;;;;;12.18;41.81;100684.50;4851378;29;19928;-77
2021/03/27 03:10:20;;;;;;;;;;;;;;;12.24;39.91;100680.75;4844875;29;19929;-76
2021/03/27 03:12:55;;;;;;;;;;;;;;;12.26;39.72;100690.41;4845868;29;19991;-76
2021/03/27 03:15:24;;;;;;;;;;;;;;;12.31;38.49;100684.09;4855419;29;19928;-77
2021/03/27 03:17:56;;;;;;;;;;;;;;;12.33;38.01;100677.81;4853999;29;19942;-76
2021/03/27 03:20:28;;;;;;;;;;;;;;;12.25;37.94;100683.38;4840831;29;19964;-77
2021/03/27 03:22:58;;;;;;;;;;;;;;;12.16;38.64;100673.09;4848819;29;19952;-77
2021/03/27 03:25:26;;;;;;;;;;;;;;;12.09;39.34;100672.41;4845202;29;19985;-76
2021/03/27 03:28:00;;;;;;;;;;;;;;;12.05;39.37;100667.28;4850311;29;20449;-76
2021/03/27 03:30:34;;;;;;;;;;;;;;;12.01;39.68;100661.22;4838385;29;19987;-76
2021/03/27 03:33:11;;;;;;;;;;;;;;;12.00;40.13;100670.09;4841806;29;19936;-77
2021/03/27 03:35:43;;;;;;;;;;;;;;;11.97;40.22;100661.41;4844584;29;19951;-76
2021/03/27 03:38:18;;;;;;;;;;;;;;;11.95;40.52;100657.00;4849870;29;20028;-76
2021/03/27 03:40:49;;;;;;;;;;;;;;;11.93;40.76;100650.00;4847460;29;19933;-76
2021/03/27 03:43:20;;;;;;;;;;;;;;;11.92;40.94;100649.16;4846607;29;19936;-76
2021/03/27 03:45:55;;;;;;;;;;;;;;;11.92;41.16;100651.78;4856801;29;19963;-76
2021/03/27 03:48:38;;;;;;;;;;;;;;;11.90;41.51;100643.00;4857881;29;19932;-76
2021/03/27 03:51:08;;;;;;;;;;;;;;;11.88;41.54;100636.03;4846623;29;19936;-76
2021/03/27 03:53:39;;;;;;;;;;;;;;;11.87;41.72;100631.66;4848005;29;21088;-77
2021/03/27 03:56:15;;;;;;;;;;;;;;;11.84;41.94;100637.91;4859816;29;20048;-76
2021/03/27 03:59:01;;;;;;;;;;;;;;;11.84;41.84;100632.63;4842299;29;19933;-77
2021/03/27 04:01:38;;;;;;;;;;;;;;;11.84;42.11;100629.13;4841794;29;19928;-76
2021/03/27 04:04:08;;;;;;;;;;;;;;;11.82;41.90;100638.88;4842194;29;21192;-76
2021/03/27 04:06:36;;;;;;;;;;;;;;;11.79;42.25;100630.13;4859746;29;19933;-77
2021/03/27 04:09:09;;;;;;;;;;;;;;;11.80;42.50;100631.00;4846729;29;19935;-76
2021/03/27 04:11:39;;;;;;;;;;;;;;;11.79;42.46;100624.84;4862418;29;19932;-76
2021/03/27 04:14:11;;;;;;;;;;;;;;;11.78;42.30;100617.81;4855043;29;20351;-76
2021/03/27 04:16:41;;;;;;;;;;;;;;;11.78;42.53;100617.81;4840984;29;19996;-77
2021/03/27 04:19:13;;;;;;;;;;;;;;;11.77;42.59;100616.06;4845801;29;19964;-76
2021/03/27 04:21:50;;;;;;;;;;;;;;;11.79;42.60;100623.94;4855929;29;20004;-77
2021/03/27 04:24:20;;;;;;;;;;;;;;;11.77;42.86;100615.22;4842545;29;19928;-77
2021/03/27 04:26:49;;;;;;;;;;;;;;;11.77;42.70;100620.50;4841264;29;19932;-76
2021/03/27 04:29:23;;;;;;;;;;;;;;;11.75;42.82;100624.97;4855025;29;20278;-76
2021/03/27 04:32:00;;;;;;;;;;;;;;;11.75;42.94;100619.69;4847674;29;19935;-76
2021/03/27 04:34:32;;;;;;;;;;;;;;;11.72;43.19;100610.06;4843626;29;19929;-76
2021/03/27 04:37:03;;;;;;;;;;;;;;;11.73;43.10;100603.00;4844421;29;19963;-76
2021/03/27 04:39:33;;;;;;;;;;;;;;;11.73;43.10;100598.53;4843109;29;19937;-76
2021/03/27 04:42:02;;;;;;;;;;;;;;;11.63;43.19;100575.94;4839193;29;19932;-76
2021/03/27 04:44:33;;;;;;;;;;;;;;;11.71;43.08;100583.63;4842661;29;19944;-76
2021/03/27 04:47:07;;;;;;;;;;;;;;;11.71;43.05;100586.25;4842422;29;20417;-76
2021/03/27 04:49:41;;;;;;;;;;;;;;;11.71;43.26;100584.47;4847298;29;19936;-76
2021/03/27 04:52:11;;;;;;;;;;;;;;;11.69;43.31;100577.47;4843101;29;19932;-76
2021/03/27 04:54:47;;;;;;;;;;;;;;;11.69;43.73;100570.41;4841010;29;20235;-76
2021/03/27 04:57:16;;;;;;;;;;;;;;;11.69;43.54;100572.19;4850732;29;20035;-77
2021/03/27 04:59:58;;;;;;;;;;;;;;;11.68;43.46;100563.38;4844622;29;19933;-76
2021/03/27 05:02:30;;;;;;;;;;;;;;;11.67;43.31;100559.00;4858534;29;19973;-77
2021/03/27 05:05:01;;;;;;;;;;;;;;;11.67;43.66;100543.09;4839411;29;19929;-75
2021/03/27 05:07:32;;;;;;;;;;;;;;;11.66;43.74;100538.75;4860087;29;19928;-76
2021/03/27 05:10:06;;;;;;;;;;;;;;;11.68;43.70;100536.88;4833629;29;19939;-76
2021/03/27 05:12:43;;;;;;;;;;;;;;;11.68;43.54;100534.22;4841215;29;19932;-76
2021/03/27 05:15:36;;;;;;;;;;;;;;;11.69;43.57;100538.63;4844039;29;19989;-76
2021/03/27 05:18:14;;;;;;;;;;;;;;;11.69;43.71;100538.63;4842732;29;19968;-76
2021/03/27 05:20:43;;;;;;;;;;;;;;;11.69;43.77;100530.69;4845152;29;19936;-76
2021/03/27 05:23:15;;;;;;;;;;;;;;;11.70;43.84;100524.47;4855111;29;19996;-76
2021/03/27 05:25:54;;;;;;;;;;;;;;;11.73;43.50;100537.59;4842939;29;19933;-76
2021/03/27 05:28:39;;;;;;;;;;;;;;;11.80;43.63;100535.59;4840647;29;19932;-76
2021/03/27 05:31:10;;;;;;;;;;;;;;;11.82;43.41;100530.22;4844894;29;19937;-76
2021/03/27 05:33:44;;;;;;;;;;;;;;;11.82;43.62;100522.28;4840731;29;20506;-76
2021/03/27 05:36:25;;;;;;;;;;;;;;;11.85;43.40;100527.47;4834194;29;19959;-76
2021/03/27 05:38:54;;;;;;;;;;;;;;;11.83;43.26;100516.91;4840507;29;19928;-76
2021/03/27 05:41:32;;;;;;;;;;;;;;;11.83;43.30;100508.09;4844400;29;19932;-76
2021/03/27 05:44:17;;;;;;;;;;;;;;;11.81;43.51;100497.56;4842810;29;20252;-77
2021/03/27 05:46:59;;;;;;;;;;;;;;;11.79;43.54;100489.69;4842593;29;19932;-76
2021/03/27 05:49:48;;;;;;;;;;;;;;;11.83;43.63;100502.81;4854104;29;20442;-76
2021/03/27 05:52:23;;;;;;;;;;;;;;;11.88;43.40;100508.81;4851826;29;19963;-76
2021/03/27 05:55:20;;;;;;;;;;;;;;;11.88;43.35;100506.16;4836146;29;19955;-76
2021/03/27 05:58:05;;;;;;;;;;;;;;;11.88;43.20;100512.31;4840514;29;20157;-75
2021/03/27 06:00:36;;;;;;;;;;;;;;;11.88;43.63;100514.09;4842120;29;19932;-76
2021/03/27 06:03:21;;;;;;;;;;;;;;;11.90;43.48;100505.19;4855940;29;19929;-76
2021/03/27 06:06:00;;;;;;;;;;;;;;;11.91;43.43;100495.44;4836768;29;20297;-75
2021/03/27 06:08:39;;;;;;;;;;;;;;;11.93;43.44;100504.19;4838391;29;19944;-76
2021/03/27 06:11:24;;;;;;;;;;;;;;;11.88;43.42;100499.06;4838013;29;19932;-75
2021/03/27 06:14:05;;;;;;;;;;;;;;;11.94;43.29;100501.50;4833232;29;19937;-76
2021/03/27 06:16:47;;;;;;;;;;;;;;;11.93;43.45;100501.56;4841532;29;19968;-75
2021/03/27 06:19:42;;;;;;;;;;;;;;;11.90;43.34;100496.38;4836388;29;20694;-75
2021/03/27 06:22:16;;;;;;;;;;;;;;;11.92;43.82;100503.34;4851952;29;19932;-73
2021/03/27 06:24:49;;;;;;;;;;;;;;;11.92;43.47;100502.47;4843827;29;19967;-74
2021/03/27 06:27:31;;;;;;;;;;;;;;;11.89;43.49;100502.59;4840261;29;20360;-73
2021/03/27 06:30:15;;;;;;;;;;;;;;;11.86;43.58;100497.38;4841889;29;19936;-74
2021/03/27 06:32:54;;;;;;;;;;;;;;;11.82;43.93;100483.41;4849584;29;19969;-74
2021/03/27 06:35:32;;;;;;;;;;;;;;;11.81;43.82;100470.22;4838250;29;20539;-73
2021/03/27 06:38:21;;;;;;;;;;;;;;;11.80;44.02;100477.28;4840073;29;20013;-74
2021/03/27 06:41:06;;;;;;;;;;;;;;;11.79;43.91;100470.25;4843928;29;20431;-73
2021/03/27 06:43:58;;;;;;;;;;;;;;;11.77;43.90;100462.34;4837696;29;19932;-74
2021/03/27 06:46:43;;;;;;;;;;;;;;;11.78;43.90;100453.50;4839626;29;19932;-74
2021/03/27 06:49:32;;;;;;;;;;;;;;;11.82;43.89;100453.38;4830270;29;19961;-74
2021/03/27 06:52:21;;;;;;;;;;;;;;;11.84;44.06;100476.25;4838017;29;19928;-74
2021/03/27 06:55:17;;;;;;;;;;;;;;;11.89;43.72;100468.97;4840874;29;20031;-73
2021/03/27 06:57:59;;;;;;;;;;;;;;;11.92;43.65;100457.41;4839615;29;19943;-74
2021/03/27 07:08:50;;;;;;;;;;;;;;;11.89;43.80;100473.44;4768036;29;20056;-73
2021/03/27 07:11:37;;;;;;;;;;;;;;;11.88;44.02;100475.19;4772936;29;21527;-71
2021/03/27 07:18:04;;;;;;;;;;;;;;;11.91;43.68;100435.34;4738318;29;20545;-72
2021/03/27 07:28:25;;;;;;;;;;;;;;;11.99;43.91;100450.13;4751186;29;19938;-73
2021/03/27 07:31:28;;;;;;;;;;;;;;;12.01;43.64;100457.09;4761850;29;19948;-74
2021/03/27 07:34:53;;;;;;;;;;;;;;;12.14;43.52;100449.53;4771430;29;19933;-71
2021/03/27 07:37:41;;;;;;;;;;;;;;;12.22;43.32;100447.44;4774654;29;20290;-71
2021/03/27 07:40:56;;;;;;;;;;;;;;;12.27;43.29;100441.97;4771237;29;19965;-73
2021/03/27 07:43:33;;;;;;;;;;;;;;;12.31;43.67;100432.13;4767490;29;19938;-73
2021/03/27 07:46:27;;;;;;;;;;;;;;;12.36;43.35;100431.00;4768590;29;19948;-73
2021/03/27 07:49:14;;;;;;;;;;;;;;;12.44;43.30;100428.03;4759613;29;20001;-72
2021/03/27 07:51:52;;;;;;;;;;;;;;;12.57;43.07;100434.56;4770600;29;19977;-74
2021/03/27 07:54:41;;;;;;;;;;;;;;;12.62;42.88;100432.59;4752606;30;20620;-72
2021/03/27 07:57:18;;;;;;;;;;;;;;;12.71;42.91;100433.13;4771077;29;19965;-71
2021/03/27 08:00:02;;;;;;;;;;;;;;;12.72;42.81;100430.41;4780441;29;20986;-75
2021/03/27 08:02:52;;;;;;;;;;;;;;;12.74;44.29;100446.31;4807555;29;19932;-74
2021/03/27 08:05:40;;;;;;;;;;;;;;;12.73;44.77;100442.75;4828519;29;19937;-74
2021/03/27 08:08:34;;;;;;;;;;;;;;;12.70;44.82;100442.00;4815476;29;19932;-74
2021/03/27 08:11:28;;;;;;;;;;;;;;;12.78;44.39;100432.81;4829264;29;19939;-75
2021/03/27 08:15:07;;;;;;;;;;;;;;;;;;;;;
2021/03/27 08:18:17;;;;;;;;;;;;;;;13.25;42.90;100413.13;4840049;29;20008;-74
2021/03/27 08:21:24;;;;;;;;;;;;;;;13.56;40.59;100417.09;4834707;29;19968;-74
2021/03/27 08:24:40;;;;;;;;;;;;;;;13.55;39.05;100455.25;4841348;29;19929;-74
2021/03/27 08:27:33;;;;;;;;;;;;;;;13.57;38.72;100468.47;4850829;29;19957;-74
2021/03/27 08:30:19;;;;;;;;;;;;;;;13.86;38.42;100451.22;4824638;29;19936;-74
2021/03/27 08:33:04;;;;;;;;;;;;;;;14.08;36.16;100466.19;4827047;29;19936;-73
2021/03/27 08:35:48;;;;;;;;;;;;;;;14.34;35.32;100464.06;4843725;29;19936;-75
2021/03/27 08:38:33;;;;;;;;;;;;;;;14.55;34.59;100467.50;4846039;29;19943;-74
2021/03/27 08:41:21;;;;;;;;;;;;;;;14.45;35.16;100465.28;4823746;29;19940;-74
2021/03/27 08:44:01;;;;;;;;;;;;;;;14.76;41.41;100463.84;4821400;29;20000;-74
2021/03/27 08:46:44;;;;;;;;;;;;;;;14.97;46.26;100471.72;4828211;29;20023;-74
2021/03/27 08:49:32;;;;;;;;;;;;;;;15.30;45.73;100478.03;4828914;29;19932;-74
2021/03/27 08:52:14;;;;;;;;;;;;;;;15.64;45.32;100469.16;4823866;29;19933;-76
2021/03/27 08:54:49;;;;;;;;;;;;;;;16.12;45.15;100476.44;4819092;29;20396;-76
2021/03/27 08:57:30;;;;;;;;;;;;;;;16.71;44.01;100479.38;4825169;29;19932;-76
2021/03/27 09:00:04;;;;;;;;;;;;;;;17.07;43.36;100471.06;4826048;29;20289;-76
2021/03/27 09:02:52;;;;;;;;;;;;;;;17.60;41.72;100473.25;4820700;29;19943;-75
2021/03/27 09:05:33;;;;;;;;;;;;;;;17.36;42.45;100472.94;4841649;29;19933;-76
2021/03/27 09:08:11;;;;;;;;;;;;;;;16.96;43.44;100475.31;4837377;29;20450;-75
2021/03/27 09:10:54;;;;;;;;;;;;;;;16.67;43.99;100476.00;4834730;29;19939;-75
2021/03/27 09:13:34;;;;;;;;;;;;;;;16.32;45.51;100483.34;4826126;29;19938;-76
2021/03/27 09:16:22;;;;;;;;;;;;;;;16.24;45.42;100489.97;4839272;29;20332;-75
2021/03/27 09:18:58;;;;;;;;;;;;;;;16.41;44.54;100481.00;4825232;29;20035;-76
2021/03/27 09:21:36;;;;;;;;;;;;;;;16.55;43.18;100492.72;4831453;29;19936;-71
2021/03/27 09:24:34;;;;;;;;;;;;;;;17.00;41.71;100490.22;4823228;29;19940;-75
2021/03/27 09:27:32;;;;;;;;;;;;;;;17.18;39.89;100496.28;4827772;29;20483;-74
2021/03/27 09:38:09;;;;;;;;;;;;;;;16.73;37.42;100498.81;4763466;29;20001;-82
2021/03/27 09:52:10;;;;;;;;;;;;;;;16.65;37.04;100519.75;4812117;29;19936;-74
2021/03/27 09:55:24;;;;;;;;;;;;;;;16.79;36.93;100519.84;4804982;29;19939;-76
2021/03/27 10:23:43;;;;;;;;;;;;;;;15.09;41.28;100560.81;4744470;30;20768;-78
2021/03/27 10:29:39;;;;;;;;;;;;;;;15.08;41.44;100569.72;4839844;29;19936;-85
2021/03/27 10:32:28;;;;;;;;;;;;;;;15.17;41.44;100568.38;4842202;29;20414;-77
2021/03/27 10:35:00;;;;;;;;;;;;;;;15.74;40.05;100573.53;4845025;29;20331;-77
2021/03/27 10:37:42;;;;;;;;;;;;;;;15.65;40.18;100584.66;4844091;29;20422;-78
2021/03/27 10:40:55;;;;;;;;;;;;;;;15.38;40.90;100590.47;4846104;29;20311;-79
2021/03/27 11:19:56;;;;;;;;;;;;;;;15.36;40.70;100654.50;4832202;29;20036;-80
2021/03/27 11:26:08;;;;;;;;;;;;;;;15.16;40.81;100655.47;4829295;29;19928;-78
2021/03/27 11:28:38;;;;;;;;;;;;;;;15.05;41.24;100668.41;4828257;29;20674;-79
2021/03/27 11:31:13;;;;;;;;;;;;;;;15.03;41.48;100668.50;4830781;29;19936;-77
2021/03/27 11:34:02;;;;;;;;;;;;;;;15.09;41.23;100659.38;4833174;29;19929;-72
2021/03/27 11:36:32;;;;;;;;;;;;;;;15.11;42.56;100676.13;4828258;29;19937;-76
2021/03/27 11:39:02;;;;;;;;;;;;;;;14.96;44.27;100685.72;4849063;29;19932;-75
2021/03/27 11:41:34;;;;;;;;;;;;;;;14.65;46.20;100681.78;4833636;29;19944;-75
2021/03/27 11:44:23;;;;;;;;;;;;;;;14.46;45.71;100684.41;4843897;29;19949;-75
2021/03/27 11:46:54;;;;;;;;;;;;;;;14.31;45.75;100699.22;4829538;29;19944;-75
2021/03/27 11:49:25;;;;;;;;;;;;;;;14.07;45.69;100704.69;4832815;29;19936;-75
2021/03/27 11:51:58;;;;;;;;;;;;;;;13.98;45.63;100701.56;4835795;29;19933;-75
2021/03/27 11:54:28;;;;;;;;;;;;;;;13.91;45.17;100700.97;4850378;29;20492;-74
2021/03/27 11:57:15;;;;;;;;;;;;;;;14.01;44.82;100723.59;4838089;29;19947;-75
2021/03/27 12:09:22;;;;;;;;;;;;;;;14.11;42.92;100751.50;3147153;27;19975;-75
2021/03/27 12:12:52;;;;;;;;;;;;;;;14.12;42.66;100763.03;4814797;29;19939;-76
2021/03/27 12:16:15;;;;;;;;;;;;;;;14.07;42.91;100759.69;4812366;29;19936;-83
2021/03/27 12:19:13;;;;;;;;;;;;;;;14.21;42.47;100756.44;4830838;29;19932;-77
2021/03/27 12:21:45;;;;;;;;;;;;;;;14.26;42.22;100759.75;4831241;29;19932;-75
2021/03/27 12:24:19;;;;;;;;;;;;;;;14.15;42.67;100760.22;4826366;29;20984;-74
2021/03/27 12:26:53;;;;;;;;;;;;;;;14.07;42.75;100768.53;4805321;29;19973;-73
2021/03/27 12:29:33;;;;;;;;;;;;;;;14.04;43.38;100775.75;4827738;29;19932;-76
2021/03/27 12:32:15;;;;;;;;;;;;;;;14.45;43.22;100779.34;4829231;29;19942;-80
2021/03/27 12:34:49;;;;;;;;;;;;;;;14.54;45.74;100790.53;4829904;29;19960;-75
2021/03/27 12:37:22;;;;;;;;;;;;;;;14.57;45.11;100806.38;4823017;29;20325;-75
2021/03/27 12:39:54;;;;;;;;;;;;;;;14.63;44.66;100810.56;4824538;29;20364;-78
2021/03/27 12:42:23;;;;;;;;;;;;;;;14.49;44.29;100817.34;4810439;29;20520;-76
2021/03/27 12:44:54;;;;;;;;;;;;;;;14.41;44.55;100824.78;4812010;29;19989;-76
2021/03/27 12:47:26;;;;;;;;;;;;;;;14.45;43.31;100823.72;4812655;29;20047;-76
2021/03/27 12:50:07;;;;;;;;;;;;;;;14.49;42.13;100832.47;4830969;29;19961;-76
2021/03/27 12:52:49;;;;;;;;;;;;;;;14.45;41.41;100848.53;4829406;29;19968;-76
2021/03/27 12:56:02;;;;;;;;;;;;;;;14.43;40.63;100855.75;4810645;29;19928;-80
2021/03/27 13:02:51;;;;;;;;;;;;;;;14.64;40.04;100854.91;4772844;29;20169;-77
2021/03/27 13:09:18;;;;;;;;;;;;;;;15.69;50.01;100863.56;4762995;29;19933;-74
2021/03/27 13:11:48;;;;;;;;;;;;;;;15.44;44.75;100867.38;4791898;29;19933;-75
2021/03/27 13:14:41;;;;;;;;;;;;;;;14.56;44.14;100873.84;4786209;29;19937;-77
2021/03/27 13:17:36;;;;;;;;;;;;;;;14.48;44.24;100889.28;4774869;29;19956;-75
2021/03/27 13:20:11;;;;;;;;;;;;;;;14.51;43.93;100892.69;4789883;29;19937;-76
2021/03/27 13:30:24;;;;;;;;;;;;;;;13.12;45.31;100903.28;4718150;30;19960;-73
2021/03/27 13:33:04;;;;;;;;;;;;;;;13.16;46.36;100910.22;4753304;29;20050;-80
2021/03/27 13:35:38;;;;;;;;;;;;;;;12.91;46.66;100907.56;4782498;29;20137;-72
2021/03/27 13:38:12;;;;;;;;;;;;;;;12.35;48.04;100919.16;4785170;29;19933;-74
2021/03/27 13:40:42;;;;;;;;;;;;;;;12.24;49.01;100920.34;4776984;29;19961;-72
2021/03/27 13:43:32;;;;;;;;;;;;;;;12.22;48.92;100921.31;4790395;29;19930;-72
2021/03/27 13:46:12;;;;;;;;;;;;;;;12.18;48.89;100922.31;4791354;29;19941;-73
2021/03/27 13:48:51;;;;;;;;;;;;;;;12.23;47.68;100931.88;4807806;29;19929;-73
2021/03/27 13:51:24;;;;;;;;;;;;;;;12.34;48.66;100938.63;4790706;29;19972;-71
2021/03/27 13:54:04;;;;;;;;;;;;;;;12.38;48.10;100940.25;4809269;29;20461;-75
2021/03/27 13:56:41;;;;;;;;;;;;;;;12.38;48.34;100945.56;4810109;29;20099;-74
2021/03/27 13:59:26;;;;;;;;;;;;;;;12.28;48.42;100937.91;4792871;29;19949;-76
2021/03/27 14:02:23;;;;;;;;;;;;;;;12.24;48.27;100940.69;4782589;29;20354;-78
2021/03/27 14:04:55;;;;;;;;;;;;;;;12.08;47.30;100945.59;4725182;30;20035;-76
2021/03/27 14:07:29;;;;;;;;;;;;;;;11.91;47.81;100938.13;4779772;29;19933;-74
2021/03/27 14:10:18;;;;;;;;;;;;;;;11.81;47.65;100949.94;4814174;29;20062;-76
2021/03/27 14:12:49;;;;;;;;;;;;;;;12.05;49.46;100957.16;4817145;29;19933;-74
2021/03/27 14:15:20;;;;;;;;;;;;;;;11.83;48.73;100962.19;4814443;29;20023;-74
2021/03/27 14:17:53;;;;;;;;;;;;;;;12.23;49.49;100966.34;4811508;29;19948;-76
2021/03/27 14:20:27;;;;;;;;;;;;;;;12.66;49.73;100965.91;4808613;29;19936;-75
2021/03/27 14:23:15;;;;;;;;;;;;;;;12.78;49.52;100957.56;4811321;29;19937;-78
2021/03/27 14:25:50;;;;;;;;;;;;;;;12.91;47.74;100955.34;4805419;29;19937;-76
2021/03/27 14:28:23;;;;;;;;;;;;;;;12.92;46.54;100957.94;4813598;29;19983;-77
2021/03/27 14:31:03;;;;;;;;;;;;;;;13.08;45.92;100960.94;4825495;29;20101;-76
2021/03/27 14:33:43;;;;;;;;;;;;;;;13.26;44.72;100963.88;4805865;29;20414;-78
2021/03/27 14:36:14;;;;;;;;;;;;;;;13.19;43.84;100970.34;4805874;29;19933;-77
2021/03/27 14:39:05;;;;;;;;;;;;;;;12.92;44.98;100971.22;4809926;29;19993;-76
2021/03/27 14:41:38;;;;;;;;;;;;;;;12.77;45.87;100983.22;4810561;29;19944;-76
2021/03/27 14:44:08;;;;;;;;;;;;;;;12.65;46.53;100990.69;4812545;29;21524;-77
2021/03/27 14:46:57;;;;;;;;;;;;;;;12.67;46.21;100991.53;4818298;29;20132;-76
2021/03/27 14:49:42;;;;;;;;;;;;;;;12.60;45.26;100997.03;4806530;29;19941;-78
2021/03/27 14:52:16;;;;;;;;;;;;;;;12.60;44.74;100999.69;4803743;29;19992;-76
2021/03/27 14:54:49;;;;;;;;;;;;;;;12.64;44.18;101013.72;4824394;29;19936;-79
2021/03/27 14:57:22;;;;;;;;;;;;;;;12.73;43.50;101017.88;4817679;29;19929;-78
2021/03/27 14:59:57;;;;;;;;;;;;;;;12.91;42.55;101011.97;4806613;29;19956;-75
2021/03/27 15:02:27;;;;;;;;;;;;;;;12.96;42.12;101014.47;4803406;29;19933;-75
2021/03/27 15:05:02;;;;;;;;;;;;;;;13.06;41.18;101010.59;4808056;29;19948;-75
2021/03/27 15:07:32;;;;;;;;;;;;;;;13.10;40.79;101024.63;4817832;29;20012;-76
2021/03/27 15:10:30;;;;;;;;;;;;;;;13.06;40.79;101030.97;4809744;29;19937;-78
2021/03/27 15:13:01;;;;;;;;;;;;;;;12.94;41.16;101029.59;4811846;29;20886;-79
2021/03/27 15:15:30;;;;;;;;;;;;;;;12.89;40.56;101031.53;4823379;29;19943;-76
2021/03/27 15:18:01;;;;;;;;;;;;;;;12.85;40.62;101043.16;4823379;29;19939;-75
2021/03/27 15:20:30;;;;;;;;;;;;;;;13.21;47.24;101032.22;4832962;29;19933;-76
2021/03/27 15:23:07;;;;;;;;;;;;;;;14.11;53.30;101036.13;4829089;29;19943;-74
2021/03/27 15:28:47;;;;;;;;;;;;;;;14.05;49.60;101036.41;4826573;29;19944;-75
2021/03/27 15:31:17;;;;;;;;;;;;;;;13.95;48.58;101050.94;4827754;29;19932;-74
2021/03/27 15:33:49;;;;;;;;;;;;;;;13.85;47.20;101052.22;4831731;29;19937;-74
2021/03/27 15:36:20;;;;;;;;;;;;;;;13.71;46.06;101055.34;4830550;29;19936;-74
2021/03/27 15:38:56;;;;;;;;;;;;;;;13.43;46.72;101058.97;4814750;29;21888;-75
2021/03/27 15:41:25;;;;;;;;;;;;;;;13.22;46.89;101064.06;4830749;29;20055;-75
2021/03/27 15:44:00;;;;;;;;;;;;;;;13.11;47.13;101072.38;4832199;29;19976;-75
2021/03/27 15:46:31;;;;;;;;;;;;;;;13.06;46.87;101076.97;4833996;29;19975;-77
2021/03/27 15:49:09;;;;;;;;;;;;;;;13.11;45.36;101071.53;4833717;29;20369;-80
2021/03/27 15:51:40;;;;;;;;;;;;;;;13.14;43.87;101076.72;4832331;29;19997;-78